Pagina principale
METAR-TAF:

METAR-TAF

Aeroporti :

Messina, Italia

latitudine: 38-12N, longitudine: 015-33E, altezza: 59 m

Osservazione

Il bollettino è stato emesso 1 ora e 15 minuti fa, alle 14:55 UTC
Vento 13 kt da sud/sud-ovest con raffiche fino a 26 kt
Temperature 25°C
Umidità 79%
Pressione 1014 hPa
Visibilità 10 km o più
Nubi sparse ad un'altezza di 3000 ft

METAR: LICF 231455Z 21013G26KT 9999 SCT030 25/21 Q1014 RMK BKN SCT080 QUK 2 QUL 0 VIS MAR 16 KM MON CIME INC NC VIS MIN 9999

Ora: 18:10 (16:10 UTC)


TAF: mancante

Osservazioni e previsioni meteorologiche di più di 4000 aeroporti (messaggi METAR e TAF).

Le stazioni disponibili sono rappresentate dai dischi gialli e rossi sulla carta.

Puntare il mouse per vedere il nome della stazione.

Clicca sopra per visualizzare le osservazioni e previsioni meteorologiche.

Per cambiare la mappa : fare clic sui pulsanti verdi con una croce nera per ingrandire, il pulsante verde con un trattino per diminuire, o sulla freccia verde per le mappe adiacenti.


METAR-TAF: